Park Valley, Utah
Current Conditions -  °F | °C
As of 10:53 PM on Saturday 22 Nov 2014 (Local Time) from KBYI Reporting Station
Light Rain Light Rain  
Wind Chill: 24°   Ceiling: 4900
Heat Index: 35°   Visibility: 10mi
Dew Point: 28°   Wind: 22mph
Humidity: 76%   Direction: 260°W
Pressure: 29.93"   Gusts: 32mph
Location:  41.82°N, 113.33°W
Report Text: KBYI 230553Z AUTO 26019G28KT 10SM -RA BKN049 02/M02 A2993 RMK AO2 PK WND 26030/0534 UPE02B35E50RAB03SNB48E49 SLP136 P0000 60000 T00171022 10039 20011 53020
Loading
Personal Weather Stations






























Interactive Weather Map New forecast layout! Learn more

10-Day Weather Forecast

Advertisements
Track Severe Weather on mobile